Time;durP1;ratioP1;P1;durP2;ratioP2;P2;SDS_P1;SDS_P2;PMS_P1;PMS_P2;Temp;Humidity;BMP_temperature;BMP_pressure;BME280_temperature;BME280_humidity;BME280_pressure;Samples;Min_cycle;Max_cycle;Signal;HPM_P1;HPM_P2
2022/12/01 00:01:35;;;;;;;115.53;50.78;;;6.00;99.90;;;;;;6215236;23;20019;-91
2022/12/01 00:04:00;;;;;;;115.25;51.85;;;6.00;99.90;;;;;;6215353;23;20099;-92
2022/12/01 00:06:26;;;;;;;126.47;51.72;;;5.60;99.90;;;;;;6215453;23;20391;-92
2022/12/01 00:11:37;;;;;;;122.80;51.08;;;5.80;99.90;;;;;;6243056;22;20060;-90
2022/12/01 00:14:04;;;;;;;116.20;48.88;;;5.80;99.90;;;;;;6214949;23;20020;-90
2022/12/01 00:16:30;;;;;;;122.95;52.15;;;5.40;99.90;;;;;;6214587;23;20019;-90
2022/12/01 00:18:56;;;;;;;120.85;51.33;;;6.20;99.90;;;;;;6214757;23;20016;-90
2022/12/01 00:21:24;;;;;;;124.07;50.67;;;5.50;99.90;;;;;;6215122;23;20012;-90
2022/12/01 00:23:52;;;;;;;122.45;51.22;;;5.10;99.90;;;;;;6215890;23;20016;-90
2022/12/01 00:26:19;;;;;;;115.97;50.15;;;6.30;99.90;;;;;;6215324;23;20020;-91
2022/12/01 00:28:50;;;;;;;128.30;52.90;;;5.30;99.90;;;;;;6215074;23;20034;-91
2022/12/01 00:31:15;;;;;;;116.07;49.35;;;5.80;99.90;;;;;;6215029;23;20047;-92
2022/12/01 00:33:41;;;;;;;115.60;51.17;;;5.50;99.90;;;;;;6214622;23;20020;-91
2022/12/01 00:36:07;;;;;;;120.47;52.03;;;6.20;99.90;;;;;;6214412;23;20383;-91
2022/12/01 00:38:33;;;;;;;124.57;51.50;;;5.50;99.90;;;;;;6215414;23;20024;-91
2022/12/01 00:40:58;;;;;;;118.75;51.55;;;5.90;99.90;;;;;;6215496;23;20102;-90
2022/12/01 00:43:24;;;;;;;131.23;53.50;;;5.90;99.90;;;;;;6214195;23;20345;-91
2022/12/01 00:45:50;;;;;;;122.25;51.13;;;6.30;99.90;;;;;;6215521;23;20051;-90
2022/12/01 00:48:17;;;;;;;125.50;52.25;;;6.00;99.90;;;;;;6214582;23;20015;-91
2022/12/01 00:50:43;;;;;;;128.65;52.40;;;6.40;99.90;;;;;;6214775;23;20048;-91
2022/12/01 00:53:08;;;;;;;131.00;53.85;;;4.80;99.90;;;;;;6215161;23;20016;-92
2022/12/01 00:55:34;;;;;;;122.35;53.30;;;5.70;99.90;;;;;;6215792;23;20381;-91
2022/12/01 00:58:00;;;;;;;125.78;52.75;;;5.70;99.90;;;;;;6214582;23;20015;-91
2022/12/01 01:00:26;;;;;;;124.70;52.15;;;5.50;99.90;;;;;;6214612;23;20015;-91
2022/12/01 01:02:51;;;;;;;135.55;55.15;;;5.40;99.90;;;;;;6215049;23;20023;-91
2022/12/01 01:05:17;;;;;;;128.85;54.33;;;5.90;99.90;;;;;;6215093;23;20024;-92
2022/12/01 01:07:43;;;;;;;128.07;51.45;;;5.70;99.90;;;;;;6215207;23;20016;-92
2022/12/01 01:10:10;;;;;;;119.13;51.88;;;6.00;99.90;;;;;;6215888;23;20302;-92
2022/12/01 01:12:37;;;;;;;123.60;52.08;;;5.30;99.90;;;;;;6214247;23;20023;-91
2022/12/01 01:15:04;;;;;;;127.10;53.40;;;6.10;99.90;;;;;;6215266;23;20095;-91
2022/12/01 01:17:31;;;;;;;123.50;53.38;;;5.50;99.90;;;;;;6214017;23;20023;-92
2022/12/01 01:19:57;;;;;;;122.00;54.42;;;6.40;99.90;;;;;;6214394;23;20463;-92
2022/12/01 01:22:23;;;;;;;129.45;54.05;;;6.00;99.90;;;;;;6215423;23;20095;-91
2022/12/01 01:24:48;;;;;;;122.00;52.28;;;5.50;99.90;;;;;;6214712;23;20038;-91
2022/12/01 01:27:14;;;;;;;122.50;52.03;;;5.70;99.90;;;;;;6215070;23;20023;-91
2022/12/01 01:29:41;;;;;;;127.00;54.30;;;5.90;99.90;;;;;;6214909;23;20023;-91
2022/12/01 01:32:07;;;;;;;120.20;51.72;;;6.20;99.90;;;;;;6213681;23;20448;-91
2022/12/01 01:34:33;;;;;;;124.95;54.60;;;6.10;99.90;;;;;;6215069;23;20012;-91
2022/12/01 01:36:59;;;;;;;121.22;52.38;;;5.80;99.90;;;;;;6214614;23;20051;-91
2022/12/01 01:39:24;;;;;;;118.68;51.65;;;5.60;99.90;;;;;;6214171;23;20016;-92
2022/12/01 01:41:50;;;;;;;123.15;54.63;;;5.50;99.90;;;;;;6214960;23;20535;-92
2022/12/01 01:44:47;;;;;;;121.80;53.35;;;5.80;99.90;;;;;;6214507;23;20012;-92
2022/12/01 01:47:13;;;;;;;127.13;52.53;;;5.50;99.90;;;;;;6212819;23;20385;-91
2022/12/01 01:49:40;;;;;;;113.78;52.20;;;5.80;99.90;;;;;;6214780;23;20420;-90
2022/12/01 01:52:05;;;;;;;111.82;51.47;;;5.80;99.90;;;;;;6214560;23;20384;-91
2022/12/01 01:54:38;;;;;;;118.57;51.72;;;5.80;99.90;;;;;;6213528;23;20048;-91
2022/12/01 01:57:06;;;;;;;121.90;52.72;;;5.90;99.90;;;;;;6239957;23;20020;-91
2022/12/01 01:59:40;;;;;;;120.93;52.15;;;5.90;99.90;;;;;;6214556;23;20082;-91
2022/12/01 02:02:08;;;;;;;127.15;53.90;;;5.90;99.90;;;;;;6212987;23;20515;-91
2022/12/01 02:04:36;;;;;;;114.72;52.40;;;5.60;99.90;;;;;;6214724;23;20018;-91
2022/12/01 02:07:02;;;;;;;117.38;51.47;;;6.10;99.90;;;;;;6213431;23;20020;-91
2022/12/01 02:09:28;;;;;;;119.20;51.25;;;6.60;99.90;;;;;;6214681;23;20020;-91
2022/12/01 02:12:21;;;;;;;115.13;51.85;;;6.40;99.90;;;;;;6215060;23;20016;-92
2022/12/01 02:15:09;;;;;;;124.45;52.97;;;5.40;99.90;;;;;;6213954;23;20016;-91
2022/12/01 02:18:05;;;;;;;114.38;50.15;;;5.40;99.90;;;;;;6213813;23;20020;-92
2022/12/01 02:20:54;;;;;;;131.23;53.72;;;5.40;99.90;;;;;;6189390;23;20348;-91
2022/12/01 02:23:46;;;;;;;115.03;52.45;;;5.40;99.90;;;;;;6188656;23;20093;-93
2022/12/01 02:26:35;;;;;;;120.38;53.53;;;5.40;99.90;;;;;;6189586;23;20051;-91
2022/12/01 02:29:32;;;;;;;120.00;52.35;;;5.30;99.90;;;;;;6188389;23;20471;-91
2022/12/01 02:32:13;;;;;;;127.28;53.03;;;5.30;99.90;;;;;;6188931;23;20024;-91
2022/12/01 02:34:47;;;;;;;119.35;54.35;;;5.50;99.90;;;;;;6189279;23;20016;-91
2022/12/01 02:37:32;;;;;;;122.82;53.13;;;5.80;99.90;;;;;;6187965;23;20020;-90
2022/12/01 02:40:16;;;;;;;126.75;54.35;;;5.50;99.90;;;;;;6189049;23;20106;-91
2022/12/01 02:42:52;;;;;;;123.53;53.00;;;5.40;99.90;;;;;;6187797;23;20103;-90
2022/12/01 02:45:26;;;;;;;124.03;51.45;;;6.10;99.90;;;;;;6188970;23;20133;-91
2022/12/01 02:47:55;;;;;;;123.80;53.40;;;5.50;99.90;;;;;;6188594;23;20016;-91
2022/12/01 02:50:22;;;;;;;128.07;52.83;;;6.20;99.90;;;;;;6213172;23;20023;-91
2022/12/01 02:52:48;;;;;;;128.10;53.95;;;5.90;99.90;;;;;;6189330;23;20055;-91
2022/12/01 02:55:14;;;;;;;128.35;53.38;;;5.30;99.90;;;;;;6188822;23;20039;-91
2022/12/01 02:57:39;;;;;;;119.43;52.35;;;5.80;99.90;;;;;;6188495;23;20008;-91
2022/12/01 03:00:12;;;;;;;128.85;53.97;;;5.70;99.90;;;;;;6189263;23;20077;-90
2022/12/01 03:03:00;;;;;;;124.90;54.03;;;5.30;99.90;;;;;;6188193;23;20073;-91
2022/12/01 03:05:40;;;;;;;133.52;55.05;;;5.30;99.90;;;;;;6188916;23;20475;-91
2022/12/01 03:08:23;;;;;;;125.72;52.83;;;5.40;99.90;;;;;;6188922;23;20081;-91
2022/12/01 03:10:56;;;;;;;126.30;54.00;;;5.30;99.90;;;;;;6189304;23;20020;-92
2022/12/01 03:13:36;;;;;;;124.20;52.63;;;5.40;99.90;;;;;;6189405;23;20344;-91
2022/12/01 03:16:07;;;;;;;138.95;56.72;;;5.40;99.90;;;;;;6193241;22;20470;-91
2022/12/01 03:18:48;;;;;;;138.82;55.50;;;5.30;99.90;;;;;;6244005;22;20015;-91
2022/12/01 03:21:33;;;;;;;129.65;54.33;;;5.30;99.90;;;;;;6221087;22;20354;-91
2022/12/01 03:24:10;;;;;;;138.55;54.30;;;5.30;99.90;;;;;;6221004;22;20019;-91
2022/12/01 03:26:38;;;;;;;128.52;55.30;;;5.40;99.90;;;;;;6220262;22;20050;-91
2022/12/01 03:29:09;;;;;;;118.82;52.67;;;5.50;99.90;;;;;;6220781;22;20437;-91
2022/12/01 03:31:41;;;;;;;131.70;55.45;;;6.20;99.90;;;;;;6220315;22;20484;-91
2022/12/01 03:34:22;;;;;;;142.02;56.67;;;6.00;99.90;;;;;;6220766;22;20124;-91
2022/12/01 03:36:54;;;;;;;133.13;56.25;;;5.90;99.90;;;;;;6221465;22;20019;-91
2022/12/01 03:39:25;;;;;;;130.77;54.42;;;5.10;99.90;;;;;;6219796;22;20098;-91
2022/12/01 03:41:59;;;;;;;137.20;53.33;;;5.30;99.90;;;;;;6221442;22;20031;-91
2022/12/01 03:44:32;;;;;;;130.15;55.05;;;5.30;99.90;;;;;;6220712;22;20019;-91
2022/12/01 03:47:00;;;;;;;;;;;5.30;99.90;;;;;;6220379;22;20016;-91
2022/12/01 03:49:27;;;;;;;133.27;55.22;;;5.30;99.90;;;;;;6246634;22;19919;-91
2022/12/01 03:52:15;;;;;;;134.75;56.03;;;5.30;99.90;;;;;;6221284;22;20060;-91
2022/12/01 03:54:45;;;;;;;125.63;54.60;;;5.50;99.90;;;;;;6220179;22;20455;-91
2022/12/01 03:57:16;;;;;;;130.38;54.97;;;5.80;99.90;;;;;;6220650;22;20136;-92
2022/12/01 03:59:44;;;;;;;143.27;59.05;;;5.50;99.90;;;;;;6219989;22;20381;-91
2022/12/01 04:02:10;;;;;;;141.13;54.63;;;5.90;99.90;;;;;;6220189;22;20030;-91
2022/12/01 04:04:36;;;;;;;141.30;57.70;;;6.20;99.90;;;;;;6220417;22;20020;-91
2022/12/01 04:07:02;;;;;;;134.73;56.17;;;6.10;99.90;;;;;;6220088;22;20020;-91
2022/12/01 04:09:28;;;;;;;138.23;55.55;;;5.70;99.90;;;;;;6220508;22;20020;-90
2022/12/01 04:14:37;;;;;;;137.00;55.95;;;5.80;99.90;;;;;;6245290;22;20092;-91
2022/12/01 04:17:03;;;;;;;138.55;56.63;;;6.20;99.90;;;;;;6214971;23;20087;-91
2022/12/01 04:19:29;;;;;;;132.90;53.08;;;6.10;99.90;;;;;;6215635;23;20027;-91
2022/12/01 04:21:54;;;;;;;133.07;55.72;;;6.20;99.90;;;;;;6214860;23;20013;-91
2022/12/01 04:24:20;;;;;;;137.98;54.90;;;5.80;99.90;;;;;;6215282;23;20453;-91
2022/12/01 04:26:46;;;;;;;140.80;55.78;;;6.20;99.90;;;;;;6215646;23;20014;-92
2022/12/01 04:29:13;;;;;;;146.35;54.95;;;5.70;99.90;;;;;;6214532;23;20031;-91
2022/12/01 04:31:39;;;;;;;130.93;52.90;;;6.00;99.90;;;;;;6215265;23;20046;-91
2022/12/01 04:34:05;;;;;;;119.15;51.47;;;5.70;99.90;;;;;;6214587;23;20020;-91
2022/12/01 04:36:33;;;;;;;126.60;50.90;;;5.50;99.90;;;;;;6214215;23;20016;-91
2022/12/01 04:38:59;;;;;;;121.88;52.88;;;5.80;99.90;;;;;;6215044;23;20066;-91
2022/12/01 04:41:25;;;;;;;127.70;52.90;;;5.70;99.90;;;;;;6215073;23;20012;-91
2022/12/01 04:43:53;;;;;;;124.32;49.45;;;5.30;99.90;;;;;;6215171;23;20019;-92
2022/12/01 04:46:20;;;;;;;124.00;52.17;;;6.10;99.90;;;;;;6215371;23;20012;-91
2022/12/01 04:48:45;;;;;;;125.55;53.40;;;5.30;99.90;;;;;;6214085;23;20020;-92
2022/12/01 04:51:11;;;;;;;133.55;52.92;;;5.20;99.90;;;;;;6215457;23;20016;-91
2022/12/01 04:53:37;;;;;;;135.60;55.22;;;5.30;99.90;;;;;;6214350;23;20039;-91
2022/12/01 04:56:03;;;;;;;134.10;51.03;;;6.00;99.90;;;;;;6214468;23;20016;-91
2022/12/01 04:58:30;;;;;;;117.28;49.08;;;5.20;99.90;;;;;;6215633;23;20012;-92
2022/12/01 05:01:04;;;;;;;131.93;52.63;;;5.30;99.90;;;;;;6215894;23;20020;-91
2022/12/01 05:03:30;;;;;;;126.47;50.25;;;5.60;99.90;;;;;;6213237;23;20016;-92
2022/12/01 05:06:02;;;;;;;123.28;50.40;;;5.60;99.90;;;;;;6215961;23;20008;-92
2022/12/01 05:08:28;;;;;;;127.15;52.60;;;6.00;99.90;;;;;;6215009;23;20024;-91
2022/12/01 05:10:55;;;;;;;120.43;50.88;;;5.10;99.90;;;;;;6215071;23;20008;-92
2022/12/01 05:13:21;;;;;;;128.48;53.00;;;5.70;99.90;;;;;;6215597;23;20317;-92
2022/12/01 05:15:47;;;;;;;118.75;51.28;;;5.20;99.90;;;;;;6216071;22;20023;-92
2022/12/01 05:18:12;;;;;;;129.02;54.92;;;5.80;99.90;;;;;;6243890;22;20020;-91
2022/12/01 05:23:25;;;;;;;136.48;51.10;;;5.20;99.90;;;;;;6245369;22;20337;-92
2022/12/01 05:25:51;;;;;;;136.48;51.08;;;4.80;99.90;;;;;;6217723;22;20015;-93
2022/12/01 05:28:17;;;;;;;129.95;51.67;;;5.50;99.90;;;;;;6219739;22;20110;-92
2022/12/01 05:30:43;;;;;;;140.10;55.40;;;5.00;99.90;;;;;;6219592;22;20471;-91
2022/12/01 05:33:09;;;;;;;138.45;53.15;;;5.20;99.90;;;;;;6218007;22;20019;-91
2022/12/01 05:35:35;;;;;;;123.60;48.03;;;4.80;99.90;;;;;;6219744;22;20509;-91
2022/12/01 05:38:02;;;;;;;140.82;52.22;;;4.30;99.90;;;;;;6218928;22;20435;-90
2022/12/01 05:40:30;;;;;;;130.73;53.47;;;4.90;99.90;;;;;;6219650;22;20111;-92
2022/12/01 05:42:57;;;;;;;133.60;53.13;;;4.10;99.90;;;;;;6219915;22;20427;-91
2022/12/01 05:45:23;;;;;;;131.98;51.13;;;4.20;99.90;;;;;;6218715;22;20011;-92
2022/12/01 05:47:49;;;;;;;151.82;52.97;;;4.40;99.90;;;;;;6219015;22;20026;-91
2022/12/01 05:50:15;;;;;;;158.63;55.42;;;4.00;99.90;;;;;;6244716;22;20020;-90
2022/12/01 05:52:41;;;;;;;125.55;49.60;;;3.90;99.90;;;;;;6218520;22;20317;-91
2022/12/01 05:55:06;;;;;;;136.85;51.80;;;3.40;99.90;;;;;;6219775;22;20016;-92
2022/12/01 05:57:33;;;;;;;153.80;56.47;;;3.70;99.90;;;;;;6219591;22;20071;-92
2022/12/01 05:59:59;;;;;;;111.18;44.83;;;4.30;99.90;;;;;;6218435;22;20011;-90
2022/12/01 06:02:26;;;;;;;75.15;31.48;;;4.50;99.90;;;;;;6218307;22;20051;-90
2022/12/01 06:04:54;;;;;;;49.80;23.02;;;3.90;99.90;;;;;;6218222;22;20090;-93
2022/12/01 06:07:22;;;;;;;58.72;26.60;;;3.70;99.90;;;;;;6218569;22;20015;-93
2022/12/01 06:09:48;;;;;;;50.85;25.52;;;4.20;99.90;;;;;;6219245;22;20023;-93
2022/12/01 06:12:14;;;;;;;51.63;25.88;;;4.60;99.90;;;;;;6219368;22;20325;-93
2022/12/01 06:14:40;;;;;;;47.85;21.73;;;3.70;99.90;;;;;;6218160;22;20027;-93
2022/12/01 06:17:06;;;;;;;37.78;19.27;;;4.10;99.90;;;;;;6214052;23;20458;-93
2022/12/01 06:19:31;;;;;;;29.80;15.93;;;4.50;99.90;;;;;;6214772;23;20111;-94
2022/12/01 06:21:57;;;;;;;51.75;24.55;;;4.60;99.90;;;;;;6213056;23;20252;-91
2022/12/01 06:24:25;;;;;;;28.50;14.65;;;4.30;99.90;;;;;;6214530;23;20020;-90
2022/12/01 06:26:51;;;;;;;34.65;20.15;;;3.90;99.90;;;;;;6213889;23;20023;-94
2022/12/01 06:29:17;;;;;;;43.30;22.58;;;3.90;99.90;;;;;;6213464;23;20020;-90
2022/12/01 06:31:42;;;;;;;66.60;30.38;;;4.30;99.90;;;;;;6213828;23;20012;-90
2022/12/01 06:34:08;;;;;;;84.68;34.83;;;4.60;99.90;;;;;;6212536;23;20379;-90
2022/12/01 06:36:34;;;;;;;100.35;40.45;;;5.00;99.90;;;;;;6214129;23;20400;-90
2022/12/01 06:39:00;;;;;;;110.53;42.50;;;4.00;99.90;;;;;;6213131;23;20016;-89
2022/12/01 06:41:25;;;;;;;149.55;48.55;;;4.60;99.90;;;;;;6212752;23;20019;-90
2022/12/01 06:43:51;;;;;;;130.25;45.80;;;5.00;99.90;;;;;;6213858;23;20028;-89
2022/12/01 06:46:17;;;;;;;136.35;46.95;;;4.30;99.90;;;;;;6213644;23;20462;-89
2022/12/01 06:48:46;;;;;;;138.85;43.80;;;4.20;99.90;;;;;;6212362;23;20019;-90
2022/12/01 06:51:11;;;;;;;100.38;40.67;;;4.20;99.90;;;;;;6213154;23;20019;-89
2022/12/01 06:53:37;;;;;;;93.72;39.53;;;4.20;99.90;;;;;;6213522;23;20024;-89
2022/12/01 06:56:04;;;;;;;95.60;39.25;;;5.00;99.90;;;;;;6212330;23;20340;-89
2022/12/01 06:58:30;;;;;;;100.68;40.00;;;4.10;99.90;;;;;;6213437;23;20012;-89
2022/12/01 07:00:57;;;;;;;135.65;46.53;;;4.00;99.90;;;;;;6213855;23;20012;-89
2022/12/01 07:03:23;;;;;;;108.10;40.40;;;3.90;99.90;;;;;;6211793;23;20047;-89
2022/12/01 07:05:57;;;;;;;83.22;32.78;;;4.70;99.90;;;;;;6213954;23;20023;-90
2022/12/01 07:08:23;;;;;;;165.25;36.50;;;4.10;99.90;;;;;;6213588;23;20012;-89
2022/12/01 07:10:57;;;;;;;108.07;41.15;;;3.80;99.90;;;;;;6212770;23;20019;-90
2022/12/01 07:13:23;;;;;;;85.13;37.10;;;4.20;99.90;;;;;;6213244;23;20067;-89
2022/12/01 07:15:48;;;;;;;120.20;44.67;;;4.50;99.90;;;;;;6214962;22;20508;-88
2022/12/01 07:18:14;;;;;;;146.15;45.17;;;4.30;99.90;;;;;;6242661;22;20023;-91
2022/12/01 07:20:40;;;;;;;133.27;47.22;;;3.30;99.90;;;;;;6219233;22;20042;-89
2022/12/01 07:23:05;;;;;;;109.38;43.70;;;3.40;99.90;;;;;;6219955;22;20084;-90
2022/12/01 07:25:32;;;;;;;103.25;42.22;;;3.60;99.90;;;;;;6215889;23;20476;-90
2022/12/01 07:27:58;;;;;;;119.20;45.88;;;4.20;99.90;;;;;;6189301;23;20135;-91
2022/12/01 07:30:24;;;;;;;147.20;48.42;;;3.20;99.90;;;;;;6191314;23;20086;-91
2022/12/01 07:32:49;;;;;;;114.13;44.47;;;3.30;99.90;;;;;;6192023;23;20020;-92
2022/12/01 07:35:15;;;;;;;119.47;43.80;;;3.10;99.90;;;;;;6188586;23;20016;-91
2022/12/01 07:37:41;;;;;;;162.05;45.83;;;3.10;99.90;;;;;;6188307;23;20115;-90
2022/12/01 07:40:07;;;;;;;92.85;39.53;;;3.10;99.90;;;;;;6189074;23;20039;-91
2022/12/01 07:42:32;;;;;;;87.72;36.47;;;3.00;99.90;;;;;;6188245;23;20437;-90
2022/12/01 07:44:58;;;;;;;109.40;43.55;;;3.30;99.90;;;;;;6188116;23;20024;-90
2022/12/01 07:47:24;;;;;;;90.15;39.47;;;3.50;99.90;;;;;;6187969;23;20047;-91
2022/12/01 07:49:49;;;;;;;83.18;36.53;;;3.00;99.90;;;;;;6189431;23;20340;-91
2022/12/01 07:52:15;;;;;;;81.88;35.65;;;3.20;99.90;;;;;;6187910;23;20031;-91
2022/12/01 07:54:41;;;;;;;88.75;37.28;;;3.10;99.90;;;;;;6188671;23;20012;-90
2022/12/01 07:57:06;;;;;;;96.60;38.70;;;3.70;99.90;;;;;;6190679;23;20016;-90
2022/12/01 07:59:32;;;;;;;84.30;36.08;;;2.90;99.90;;;;;;6188162;23;20014;-90
2022/12/01 08:01:58;;;;;;;84.82;35.45;;;3.40;99.90;;;;;;6212511;23;20012;-89
2022/12/01 08:04:23;;;;;;;71.00;31.58;;;3.50;99.90;;;;;;6190239;23;20059;-89
2022/12/01 08:06:49;;;;;;;83.40;34.13;;;2.90;99.90;;;;;;6189859;23;20012;-90
2022/12/01 08:09:15;;;;;;;89.03;35.15;;;3.10;99.90;;;;;;6216043;23;20023;-91
2022/12/01 08:11:40;;;;;;;76.00;34.40;;;3.10;99.90;;;;;;6190830;23;20013;-90
2022/12/01 08:14:06;;;;;;;72.72;34.70;;;3.80;99.90;;;;;;6189929;23;20020;-90
2022/12/01 08:16:32;;;;;;;77.53;33.83;;;3.20;99.90;;;;;;6190271;23;20095;-90
2022/12/01 08:18:57;;;;;;;69.88;32.47;;;2.90;99.90;;;;;;6189818;23;20028;-90
2022/12/01 08:21:24;;;;;;;62.15;29.13;;;2.70;99.90;;;;;;6189911;23;20008;-91
2022/12/01 08:23:54;;;;;;;78.47;34.28;;;3.50;99.90;;;;;;6190391;23;20016;-90
2022/12/01 08:26:20;;;;;;;71.70;29.25;;;2.90;99.90;;;;;;6190876;23;20360;-89
2022/12/01 08:28:47;;;;;;;67.57;30.55;;;2.60;99.90;;;;;;6191242;22;20452;-89
2022/12/01 08:31:19;;;;;;;68.13;30.45;;;2.70;99.90;;;;;;6190851;23;20027;-94
2022/12/01 08:33:46;;;;;;;58.83;28.90;;;3.10;99.90;;;;;;6188313;23;20016;-90
2022/12/01 08:36:13;;;;;;;58.28;29.65;;;2.70;99.90;;;;;;6192371;23;20468;-90
2022/12/01 08:38:41;;;;;;;60.35;28.00;;;2.70;99.90;;;;;;6189989;23;20020;-90
2022/12/01 08:41:08;;;;;;;57.25;26.65;;;2.60;99.90;;;;;;6189160;23;20090;-91
2022/12/01 08:43:38;;;;;;;59.90;28.00;;;3.10;99.90;;;;;;6192352;23;20016;-90
2022/12/01 08:46:05;;;;;;;57.90;28.38;;;3.40;99.90;;;;;;6190210;23;20016;-89
2022/12/01 08:48:30;;;;;;;53.63;27.30;;;2.60;99.90;;;;;;6189847;23;20118;-89
2022/12/01 08:51:14;;;;;;;55.92;27.80;;;2.70;99.90;;;;;;6189154;23;20377;-89
2022/12/01 08:53:43;;;;;;;57.70;27.52;;;2.80;99.90;;;;;;6214272;23;20008;-89
2022/12/01 08:56:13;;;;;;;59.92;28.88;;;2.70;99.90;;;;;;6188723;23;20024;-89
2022/12/01 08:58:39;;;;;;;48.67;27.15;;;3.10;99.90;;;;;;6214432;23;20095;-88
2022/12/01 09:01:09;;;;;;;44.85;23.83;;;2.90;99.90;;;;;;6189485;23;20054;-90
2022/12/01 09:03:36;;;;;;;45.85;22.20;;;3.00;99.90;;;;;;6187430;23;20511;-89
2022/12/01 09:06:04;;;;;;;40.97;19.63;;;2.90;99.90;;;;;;6189901;23;20020;-90
2022/12/01 09:08:30;;;;;;;33.58;17.73;;;2.90;99.90;;;;;;6189105;23;20066;-89
2022/12/01 09:10:57;;;;;;;32.42;18.83;;;3.20;99.90;;;;;;6188745;23;20016;-90
2022/12/01 09:13:22;;;;;;;32.55;17.42;;;3.20;99.90;;;;;;6189374;23;20034;-89
2022/12/01 09:15:57;;;;;;;33.38;18.83;;;3.80;99.90;;;;;;6191409;22;20055;-90
2022/12/01 09:18:22;;;;;;;43.33;23.27;;;3.20;99.90;;;;;;6213338;23;20020;-90
2022/12/01 09:20:48;;;;;;;33.20;17.55;;;3.10;99.90;;;;;;6189012;23;20070;-89
2022/12/01 09:23:14;;;;;;;46.58;22.55;;;3.30;99.90;;;;;;6188284;23;20020;-90
2022/12/01 09:25:40;;;;;;;49.00;24.08;;;4.00;99.90;;;;;;6189569;23;20016;-90
2022/12/01 09:28:06;;;;;;;44.15;23.10;;;3.10;99.90;;;;;;6191391;23;20024;-89
2022/12/01 09:30:34;;;;;;;49.60;25.15;;;3.60;99.90;;;;;;6187940;23;20093;-89
2022/12/01 09:33:00;;;;;;;48.88;23.40;;;3.70;99.90;;;;;;6188288;23;20016;-90
2022/12/01 09:35:26;;;;;;;47.90;24.30;;;3.60;99.90;;;;;;6190764;23;20138;-89
2022/12/01 09:37:51;;;;;;;45.53;23.95;;;3.70;99.90;;;;;;6213272;23;20341;-89
2022/12/01 09:40:17;;;;;;;48.97;24.40;;;3.60;99.90;;;;;;6191490;23;20027;-90
2022/12/01 09:42:46;;;;;;;53.17;25.63;;;4.20;99.90;;;;;;6188537;23;20127;-90
2022/12/01 09:45:25;;;;;;;50.13;25.17;;;3.80;99.90;;;;;;6188183;23;20523;-89
2022/12/01 09:47:55;;;;;;;44.85;23.63;;;3.80;99.90;;;;;;6188662;23;20071;-90
2022/12/01 09:50:24;;;;;;;50.25;25.48;;;4.40;99.90;;;;;;6188904;23;20016;-90
2022/12/01 09:52:53;;;;;;;46.08;25.10;;;3.80;99.90;;;;;;6188307;23;20020;-90
2022/12/01 09:55:22;;;;;;;45.25;23.98;;;4.70;99.90;;;;;;6188581;23;20083;-89
2022/12/01 09:57:51;;;;;;;45.47;24.23;;;4.80;99.90;;;;;;6189179;23;20103;-90
2022/12/01 10:00:21;;;;;;;49.15;25.80;;;4.20;99.90;;;;;;6214887;23;20020;-89
2022/12/01 10:03:08;;;;;;;44.38;23.10;;;4.00;99.90;;;;;;6188700;23;20051;-90
2022/12/01 10:05:55;;;;;;;49.40;24.95;;;3.90;99.90;;;;;;6188296;23;20020;-90
2022/12/01 10:08:26;;;;;;;38.60;24.10;;;4.70;99.90;;;;;;6188890;23;20034;-89
2022/12/01 10:10:57;;;;;;;43.72;24.60;;;4.10;99.90;;;;;;6190870;23;20023;-90
2022/12/01 10:13:27;;;;;;;47.42;25.00;;;4.80;99.90;;;;;;6187164;23;20138;-88
2022/12/01 10:15:53;;;;;;;40.63;23.90;;;4.80;99.90;;;;;;6213832;23;20065;-90
2022/12/01 10:18:27;;;;;;;46.55;23.35;;;4.60;99.90;;;;;;6212209;23;20024;-89
2022/12/01 10:21:08;;;;;;;43.67;24.77;;;4.20;99.90;;;;;;6186907;23;20028;-89
2022/12/01 10:23:40;;;;;;;45.33;25.05;;;4.30;99.90;;;;;;6187949;23;20048;-88
2022/12/01 10:26:15;;;;;;;47.65;25.83;;;4.60;99.90;;;;;;6213216;23;20023;-89
2022/12/01 10:28:52;;;;;;;47.38;25.35;;;4.70;99.90;;;;;;6187342;23;20016;-89
2022/12/01 10:31:25;;;;;;;52.75;27.58;;;4.70;99.90;;;;;;6187598;23;20099;-89
2022/12/01 10:33:59;;;;;;;;;;;5.40;99.90;;;;;;6189501;23;20387;-89
2022/12/01 10:36:26;;;;;;;54.80;26.92;;;4.90;99.90;;;;;;6188542;23;19919;-90
2022/12/01 10:38:52;;;;;;;58.25;29.23;;;5.10;99.90;;;;;;6188672;23;20028;-90
2022/12/01 10:41:20;;;;;;;57.97;29.45;;;5.10;99.90;;;;;;6187048;23;20012;-89
2022/12/01 10:43:51;;;;;;;58.03;30.92;;;6.00;99.90;;;;;;6188722;23;20027;-89
2022/12/01 10:46:26;;;;;;;61.78;30.15;;;6.00;99.90;;;;;;6188573;23;20493;-89
2022/12/01 10:48:55;;;;;;;58.08;30.27;;;5.30;99.90;;;;;;6187021;23;20444;-91
2022/12/01 10:51:21;;;;;;;54.20;28.67;;;5.30;99.90;;;;;;6188184;23;20035;-88
2022/12/01 10:53:47;;;;;;;52.47;29.02;;;5.50;99.90;;;;;;6187369;23;20016;-88
2022/12/01 10:56:17;;;;;;;57.60;28.60;;;5.90;99.90;;;;;;6187214;23;20020;-88
2022/12/01 10:58:46;;;;;;;62.13;31.30;;;5.70;99.90;;;;;;6187597;23;20016;-89
2022/12/01 11:01:20;;;;;;;53.85;29.65;;;5.50;99.90;;;;;;6188509;23;20023;-89
2022/12/01 11:03:51;;;;;;;62.28;31.58;;;5.30;99.90;;;;;;6185974;23;20441;-89
2022/12/01 11:06:22;;;;;;;66.50;31.75;;;5.30;99.90;;;;;;6212601;23;20027;-89
2022/12/01 11:08:57;;;;;;;67.60;34.47;;;5.40;99.90;;;;;;6212162;23;20024;-89
2022/12/01 11:11:29;;;;;;;65.28;34.40;;;5.50;99.90;;;;;;6188796;23;20020;-88
2022/12/01 11:13:56;;;;;;;69.18;35.13;;;5.70;99.90;;;;;;6212468;23;20016;-88
2022/12/01 11:16:37;;;;;;;73.95;36.95;;;6.40;99.90;;;;;;6185970;23;20475;-88
2022/12/01 11:19:13;;;;;;;71.53;35.20;;;5.70;99.90;;;;;;6211133;23;20307;-89
2022/12/01 11:21:48;;;;;;;70.22;34.55;;;5.60;99.90;;;;;;6186846;23;20023;-88
2022/12/01 11:24:43;;;;;;;69.50;33.33;;;6.00;99.90;;;;;;6186145;23;20026;-88
2022/12/01 11:27:16;;;;;;;64.95;33.80;;;5.70;99.90;;;;;;6186484;23;20090;-88
2022/12/01 11:29:42;;;;;;;66.80;33.92;;;5.70;99.90;;;;;;6211341;23;20012;-88
2022/12/01 11:32:18;;;;;;;65.10;33.25;;;6.20;99.90;;;;;;6185727;23;20017;-88
2022/12/01 11:34:50;;;;;;;71.50;35.25;;;6.40;99.90;;;;;;6212285;23;20032;-88
2022/12/01 11:37:19;;;;;;;78.63;36.63;;;5.60;99.90;;;;;;6186657;23;20441;-89
2022/12/01 11:39:46;;;;;;;73.15;36.85;;;5.70;99.90;;;;;;6213105;23;20020;-89
2022/12/01 11:42:20;;;;;;;74.50;36.42;;;5.70;99.90;;;;;;6191070;23;20095;-88
2022/12/01 11:44:51;;;;;;;75.88;37.13;;;6.50;99.90;;;;;;6213061;23;20095;-88
2022/12/01 11:47:20;;;;;;;77.70;36.80;;;5.90;99.90;;;;;;6213680;23;20384;-88
2022/12/01 11:49:53;;;;;;;71.35;35.13;;;6.00;99.90;;;;;;6214449;23;20012;-89
2022/12/01 11:52:26;;;;;;;76.83;34.07;;;6.10;99.90;;;;;;6188241;23;20109;-88
2022/12/01 11:54:58;;;;;;;73.32;36.20;;;6.10;99.90;;;;;;6189820;23;20251;-89
2022/12/01 11:57:25;;;;;;;71.60;36.17;;;6.10;99.90;;;;;;6189557;23;20341;-89
2022/12/01 11:59:51;;;;;;;69.60;35.17;;;6.30;99.90;;;;;;6189140;23;20023;-88
2022/12/01 12:02:36;;;;;;;69.72;34.03;;;7.30;99.90;;;;;;6188247;23;20111;-89
2022/12/01 12:05:38;;;;;;;64.68;33.90;;;6.30;99.90;;;;;;6190603;23;20031;-89
2022/12/01 12:08:49;;;;;;;62.85;33.85;;;6.30;99.90;;;;;;6189090;23;20459;-88
2022/12/01 12:11:20;;;;;;;64.32;33.00;;;6.30;99.90;;;;;;6190057;23;20016;-91
2022/12/01 12:14:13;;;;;;;60.75;33.00;;;7.20;99.90;;;;;;6188883;23;20047;-90
2022/12/01 12:16:42;;;;;;;67.07;34.60;;;6.30;99.90;;;;;;6186567;23;20028;-90
2022/12/01 12:19:38;;;;;;;64.38;34.47;;;6.20;99.90;;;;;;6210849;23;20029;-90
2022/12/01 12:22:12;;;;;;;64.32;33.72;;;6.30;99.90;;;;;;6184827;23;20016;-90
2022/12/01 12:24:49;;;;;;;63.85;33.70;;;6.20;99.90;;;;;;6210340;23;20017;-90
2022/12/01 12:27:32;;;;;;;63.22;33.75;;;6.30;99.90;;;;;;6209320;23;20019;-89
2022/12/01 12:30:23;;;;;;;63.60;33.58;;;6.20;99.90;;;;;;6210243;23;20024;-91
2022/12/01 12:33:12;;;;;;;65.72;33.45;;;6.30;99.90;;;;;;6184484;23;20099;-90
2022/12/01 12:35:49;;;;;;;61.75;33.60;;;6.30;99.90;;;;;;6209663;23;20035;-92
2022/12/01 12:38:37;;;;;;;53.20;30.67;;;6.30;99.90;;;;;;6210291;23;20051;-92
2022/12/01 12:41:28;;;;;;;50.72;28.05;;;6.30;99.90;;;;;;6211743;23;20008;-90
2022/12/01 12:44:11;;;;;;;51.38;29.67;;;6.20;99.90;;;;;;6185504;23;20035;-91
2022/12/01 12:46:59;;;;;;;50.30;30.52;;;6.20;99.90;;;;;;6210570;23;20023;-92
2022/12/01 12:49:39;;;;;;;56.05;29.77;;;6.20;99.90;;;;;;6236044;23;20035;-91
2022/12/01 12:52:18;;;;;;;52.25;30.02;;;6.10;99.90;;;;;;6210105;23;20017;-91
2022/12/01 12:54:51;;;;;;;45.63;28.25;;;6.20;99.90;;;;;;6210057;23;20789;-91
2022/12/01 12:57:33;;;;;;;46.63;28.25;;;6.10;99.90;;;;;;6210661;23;20023;-91